sensor_id;sensor_type;location;lat;lon;timestamp;pressure;altitude;pressure_sealevel;temperature;humidity
25759;BME280;13604;52.496;13.456;2023-02-28T00:01:04;102765.94;;;0.40;78.61
25759;BME280;13604;52.496;13.456;2023-02-28T00:03:29;102761.53;;;0.46;78.03
25759;BME280;13604;52.496;13.456;2023-02-28T00:05:54;102764.63;;;0.44;77.95
25759;BME280;13604;52.496;13.456;2023-02-28T00:08:20;102747.81;;;0.39;77.81
25759;BME280;13604;52.496;13.456;2023-02-28T00:10:45;102764.28;;;0.48;78.02
25759;BME280;13604;52.496;13.456;2023-02-28T00:13:10;102763.34;;;0.47;77.66
25759;BME280;13604;52.496;13.456;2023-02-28T00:15:36;102766.31;;;0.43;78.01
25759;BME280;13604;52.496;13.456;2023-02-28T00:18:01;102745.25;;;0.24;78.20
25759;BME280;13604;52.496;13.456;2023-02-28T00:20:27;102766.69;;;0.25;79.11
25759;BME280;13604;52.496;13.456;2023-02-28T00:22:53;102762.66;;;0.12;79.53
25759;BME280;13604;52.496;13.456;2023-02-28T00:25:21;102766.69;;;0.10;80.10
25759;BME280;13604;52.496;13.456;2023-02-28T00:27:47;102759.00;;;0.10;80.49
25759;BME280;13604;52.496;13.456;2023-02-28T00:30:15;102768.69;;;0.20;79.63
25759;BME280;13604;52.496;13.456;2023-02-28T00:32:41;102764.13;;;0.25;79.32
25759;BME280;13604;52.496;13.456;2023-02-28T00:35:07;102767.38;;;0.31;79.55
25759;BME280;13604;52.496;13.456;2023-02-28T00:37:33;102763.56;;;0.27;79.69
25759;BME280;13604;52.496;13.456;2023-02-28T00:39:59;102746.56;;;0.13;79.83
25759;BME280;13604;52.496;13.456;2023-02-28T00:42:24;102763.56;;;0.27;79.95
25759;BME280;13604;52.496;13.456;2023-02-28T00:44:50;102742.16;;;0.12;79.45
25759;BME280;13604;52.496;13.456;2023-02-28T00:47:16;102733.38;;;0.10;79.55
25759;BME280;13604;52.496;13.456;2023-02-28T00:49:41;102766.31;;;0.22;79.65
25759;BME280;13604;52.496;13.456;2023-02-28T00:52:07;102770.72;;;0.30;79.74
25759;BME280;13604;52.496;13.456;2023-02-28T00:54:32;102776.56;;;0.29;79.64
25759;BME280;13604;52.496;13.456;2023-02-28T00:56:59;102759.53;;;0.22;79.59
25759;BME280;13604;52.496;13.456;2023-02-28T00:59:24;102763.03;;;0.30;79.00
25759;BME280;13604;52.496;13.456;2023-02-28T01:01:49;102772.16;;;0.28;79.07
25759;BME280;13604;52.496;13.456;2023-02-28T01:04:15;102767.56;;;0.18;79.65
25759;BME280;13604;52.496;13.456;2023-02-28T01:06:40;102767.03;;;0.21;79.66
25759;BME280;13604;52.496;13.456;2023-02-28T01:09:06;102767.78;;;0.27;79.37
25759;BME280;13604;52.496;13.456;2023-02-28T01:11:32;102754.41;;;0.22;79.61
25759;BME280;13604;52.496;13.456;2023-02-28T01:13:58;102757.34;;;0.25;79.44
25759;BME280;13604;52.496;13.456;2023-02-28T01:16:23;102759.88;;;0.18;79.65
25759;BME280;13604;52.496;13.456;2023-02-28T01:18:49;102764.69;;;0.15;80.30
25759;BME280;13604;52.496;13.456;2023-02-28T01:21:16;102767.97;;;-0.08;81.15
25759;BME280;13604;52.496;13.456;2023-02-28T01:23:42;102742.16;;;-0.24;81.48
25759;BME280;13604;52.496;13.456;2023-02-28T01:26:10;102715.59;;;-0.39;81.23
25759;BME280;13604;52.496;13.456;2023-02-28T01:28:36;102741.97;;;-0.25;81.51
25759;BME280;13604;52.496;13.456;2023-02-28T01:31:02;102736.28;;;-0.44;81.58
25759;BME280;13604;52.496;13.456;2023-02-28T01:33:27;102752.91;;;-0.41;82.13
25759;BME280;13604;52.496;13.456;2023-02-28T01:36:00;102748.13;;;-0.52;82.66
25759;BME280;13604;52.496;13.456;2023-02-28T01:38:26;102746.47;;;-0.59;82.99
25759;BME280;13604;52.496;13.456;2023-02-28T01:40:52;102751.41;;;-0.67;83.11
25759;BME280;13604;52.496;13.456;2023-02-28T01:43:22;102754.03;;;-0.87;84.72
25759;BME280;13604;52.496;13.456;2023-02-28T01:45:48;102749.50;;;-0.90;84.80
25759;BME280;13604;52.496;13.456;2023-02-28T01:48:13;102752.53;;;-1.07;85.63
25759;BME280;13604;52.496;13.456;2023-02-28T01:50:42;102755.94;;;-1.14;86.40
25759;BME280;13604;52.496;13.456;2023-02-28T01:53:11;102747.25;;;-1.36;86.47
25759;BME280;13604;52.496;13.456;2023-02-28T01:55:38;102754.75;;;-1.30;87.37
25759;BME280;13604;52.496;13.456;2023-02-28T01:58:06;102734.19;;;-1.52;87.15
25759;BME280;13604;52.496;13.456;2023-02-28T02:00:32;102743.91;;;-1.49;87.48
25759;BME280;13604;52.496;13.456;2023-02-28T02:03:06;102750.41;;;-1.58;88.35
25759;BME280;13604;52.496;13.456;2023-02-28T02:05:36;102741.22;;;-1.71;89.08
25759;BME280;13604;52.496;13.456;2023-02-28T02:08:05;102754.28;;;-1.75;89.05
25759;BME280;13604;52.496;13.456;2023-02-28T02:11:15;102739.59;;;-1.90;89.50
25759;BME280;13604;52.496;13.456;2023-02-28T02:13:41;102749.47;;;-1.86;90.56
25759;BME280;13604;52.496;13.456;2023-02-28T02:16:25;102742.03;;;-2.05;91.49
25759;BME280;13604;52.496;13.456;2023-02-28T02:28:26;102743.69;;;-2.25;94.94
25759;BME280;13604;52.496;13.456;2023-02-28T02:31:29;102743.94;;;-2.36;95.07
25759;BME280;13604;52.496;13.456;2023-02-28T02:34:29;102743.94;;;-2.36;94.98
25759;BME280;13604;52.496;13.456;2023-02-28T02:40:01;102755.00;;;-2.43;95.63
25759;BME280;13604;52.496;13.456;2023-02-28T02:42:37;102748.19;;;-2.50;95.62
25759;BME280;13604;52.496;13.456;2023-02-28T02:45:25;102759.59;;;-2.53;96.89
25759;BME280;13604;52.496;13.456;2023-02-28T02:47:53;102747.75;;;-2.73;98.34
25759;BME280;13604;52.496;13.456;2023-02-28T02:50:35;102751.28;;;-2.65;97.29
25759;BME280;13604;52.496;13.456;2023-02-28T02:53:03;102753.38;;;-2.55;97.11
25759;BME280;13604;52.496;13.456;2023-02-28T02:55:34;102755.13;;;-2.62;97.68
25759;BME280;13604;52.496;13.456;2023-02-28T02:58:04;102745.69;;;-2.63;97.46
25759;BME280;13604;52.496;13.456;2023-02-28T03:00:33;102760.19;;;-2.49;97.80
25759;BME280;13604;52.496;13.456;2023-02-28T03:03:01;102761.72;;;-2.44;97.15
25759;BME280;13604;52.496;13.456;2023-02-28T03:05:30;102759.75;;;-2.39;97.04
25759;BME280;13604;52.496;13.456;2023-02-28T03:07:58;102749.03;;;-2.36;97.39
25759;BME280;13604;52.496;13.456;2023-02-28T03:10:28;102762.06;;;-2.28;96.97
25759;BME280;13604;52.496;13.456;2023-02-28T03:13:15;102721.69;;;-2.37;97.19
25759;BME280;13604;52.496;13.456;2023-02-28T03:18:49;102761.66;;;-2.11;96.16
25759;BME280;13604;52.496;13.456;2023-02-28T03:21:32;102765.88;;;-2.11;95.82
25759;BME280;13604;52.496;13.456;2023-02-28T03:26:28;102769.59;;;-2.22;96.07
25759;BME280;13604;52.496;13.456;2023-02-28T03:29:04;102761.56;;;-2.25;96.78
25759;BME280;13604;52.496;13.456;2023-02-28T03:31:51;102774.31;;;-2.25;96.51
25759;BME280;13604;52.496;13.456;2023-02-28T03:34:22;102769.91;;;-2.26;96.40
25759;BME280;13604;52.496;13.456;2023-02-28T03:36:52;102765.88;;;-2.31;96.77
25759;BME280;13604;52.496;13.456;2023-02-28T03:39:31;102747.78;;;-2.53;96.83
25759;BME280;13604;52.496;13.456;2023-02-28T03:42:04;102768.59;;;-2.50;97.14
25759;BME280;13604;52.496;13.456;2023-02-28T03:44:41;102773.81;;;-2.55;97.82
25759;BME280;13604;52.496;13.456;2023-02-28T03:47:13;102745.09;;;-2.80;97.48
25759;BME280;13604;52.496;13.456;2023-02-28T03:50:04;102774.88;;;-2.73;98.59
25759;BME280;13604;52.496;13.456;2023-02-28T03:52:34;102742.84;;;-3.04;98.42
25759;BME280;13604;52.496;13.456;2023-02-28T03:55:05;102744.38;;;-3.12;99.06
25759;BME280;13604;52.496;13.456;2023-02-28T03:57:58;102769.44;;;-3.02;98.90
25759;BME280;13604;52.496;13.456;2023-02-28T04:00:30;102766.00;;;-3.16;99.68
25759;BME280;13604;52.496;13.456;2023-02-28T04:02:56;102774.75;;;-3.13;99.59
25759;BME280;13604;52.496;13.456;2023-02-28T04:05:22;102779.94;;;-3.19;100.00
25759;BME280;13604;52.496;13.456;2023-02-28T04:07:48;102778.41;;;-3.24;100.00
25759;BME280;13604;52.496;13.456;2023-02-28T04:10:15;102784.25;;;-3.25;100.00
25759;BME280;13604;52.496;13.456;2023-02-28T04:12:41;102773.22;;;-3.31;100.00
25759;BME280;13604;52.496;13.456;2023-02-28T04:15:06;102774.66;;;-3.34;100.00
25759;BME280;13604;52.496;13.456;2023-02-28T04:17:32;102780.03;;;-3.38;100.00
25759;BME280;13604;52.496;13.456;2023-02-28T04:19:57;102776.19;;;-3.41;100.00
25759;BME280;13604;52.496;13.456;2023-02-28T04:22:23;102781.00;;;-3.37;100.00
25759;BME280;13604;52.496;13.456;2023-02-28T04:24:51;102779.34;;;-3.49;100.00
25759;BME280;13604;52.496;13.456;2023-02-28T04:27:16;102779.53;;;-3.48;100.00
25759;BME280;13604;52.496;13.456;2023-02-28T04:29:41;102765.47;;;-3.52;100.00
25759;BME280;13604;52.496;13.456;2023-02-28T04:32:09;102786.84;;;-3.44;100.00
25759;BME280;13604;52.496;13.456;2023-02-28T04:34:35;102784.44;;;-3.49;100.00
25759;BME280;13604;52.496;13.456;2023-02-28T04:37:00;102785.13;;;-3.51;100.00
25759;BME280;13604;52.496;13.456;2023-02-28T04:39:26;102781.78;;;-3.57;100.00
25759;BME280;13604;52.496;13.456;2023-02-28T04:41:51;102769.66;;;-3.65;100.00
25759;BME280;13604;52.496;13.456;2023-02-28T04:44:16;102790.00;;;-3.52;100.00
25759;BME280;13604;52.496;13.456;2023-02-28T04:46:42;102787.88;;;-3.49;100.00
25759;BME280;13604;52.496;13.456;2023-02-28T04:49:10;102771.56;;;-3.70;100.00
25759;BME280;13604;52.496;13.456;2023-02-28T04:51:36;102768.13;;;-3.70;100.00
25759;BME280;13604;52.496;13.456;2023-02-28T04:54:01;102760.56;;;-3.76;100.00
25759;BME280;13604;52.496;13.456;2023-02-28T04:56:26;102795.72;;;-3.60;100.00
25759;BME280;13604;52.496;13.456;2023-02-28T04:58:52;102787.69;;;-3.63;100.00
25759;BME280;13604;52.496;13.456;2023-02-28T05:01:27;102787.97;;;-3.67;100.00
25759;BME280;13604;52.496;13.456;2023-02-28T05:03:54;102797.88;;;-3.63;100.00
25759;BME280;13604;52.496;13.456;2023-02-28T05:06:23;102806.69;;;-3.67;100.00
25759;BME280;13604;52.496;13.456;2023-02-28T05:08:49;102796.22;;;-3.76;100.00
25759;BME280;13604;52.496;13.456;2023-02-28T05:11:17;102800.06;;;-3.72;100.00
25759;BME280;13604;52.496;13.456;2023-02-28T05:13:43;102804.88;;;-3.68;100.00
25759;BME280;13604;52.496;13.456;2023-02-28T05:16:09;102808.75;;;-3.64;100.00
25759;BME280;13604;52.496;13.456;2023-02-28T05:18:34;102808.28;;;-3.62;100.00
25759;BME280;13604;52.496;13.456;2023-02-28T05:21:00;102811.72;;;-3.61;100.00
25759;BME280;13604;52.496;13.456;2023-02-28T05:23:27;102813.44;;;-3.67;100.00
25759;BME280;13604;52.496;13.456;2023-02-28T05:25:52;102809.16;;;-3.74;100.00
25759;BME280;13604;52.496;13.456;2023-02-28T05:28:19;102785.88;;;-3.96;100.00
25759;BME280;13604;52.496;13.456;2023-02-28T05:30:44;102815.03;;;-3.81;100.00
25759;BME280;13604;52.496;13.456;2023-02-28T05:33:11;102780.84;;;-4.01;100.00
25759;BME280;13604;52.496;13.456;2023-02-28T05:35:38;102800.25;;;-3.96;100.00
25759;BME280;13604;52.496;13.456;2023-02-28T05:38:04;102813.78;;;-3.90;100.00
25759;BME280;13604;52.496;13.456;2023-02-28T05:40:29;102813.34;;;-3.93;100.00
25759;BME280;13604;52.496;13.456;2023-02-28T05:42:54;102821.72;;;-3.94;100.00
25759;BME280;13604;52.496;13.456;2023-02-28T05:45:20;102816.44;;;-3.96;100.00
25759;BME280;13604;52.496;13.456;2023-02-28T05:47:45;102818.75;;;-3.97;100.00
25759;BME280;13604;52.496;13.456;2023-02-28T05:50:10;102824.53;;;-3.98;100.00
25759;BME280;13604;52.496;13.456;2023-02-28T05:52:36;102827.09;;;-3.98;100.00
25759;BME280;13604;52.496;13.456;2023-02-28T05:55:02;102816.50;;;-4.01;100.00
25759;BME280;13604;52.496;13.456;2023-02-28T05:57:28;102825.06;;;-4.01;100.00
25759;BME280;13604;52.496;13.456;2023-02-28T05:59:53;102799.34;;;-4.15;100.00
25759;BME280;13604;52.496;13.456;2023-02-28T06:02:19;102816.38;;;-4.09;100.00
25759;BME280;13604;52.496;13.456;2023-02-28T06:04:45;102828.72;;;-3.99;100.00
25759;BME280;13604;52.496;13.456;2023-02-28T06:07:10;102830.28;;;-3.94;100.00
25759;BME280;13604;52.496;13.456;2023-02-28T06:09:36;102795.59;;;-4.12;100.00
25759;BME280;13604;52.496;13.456;2023-02-28T06:12:02;102807.03;;;-4.02;100.00
25759;BME280;13604;52.496;13.456;2023-02-28T06:14:30;102828.16;;;-3.91;100.00
25759;BME280;13604;52.496;13.456;2023-02-28T06:16:56;102829.47;;;-3.87;100.00
25759;BME280;13604;52.496;13.456;2023-02-28T06:19:21;102803.28;;;-3.99;100.00
25759;BME280;13604;52.496;13.456;2023-02-28T06:21:49;102839.06;;;-3.79;100.00
25759;BME280;13604;52.496;13.456;2023-02-28T06:24:15;102836.47;;;-3.73;100.00
25759;BME280;13604;52.496;13.456;2023-02-28T06:26:41;102841.25;;;-3.69;100.00
25759;BME280;13604;52.496;13.456;2023-02-28T06:29:06;102814.94;;;-3.75;100.00
25759;BME280;13604;52.496;13.456;2023-02-28T06:31:32;102844.25;;;-3.53;100.00
25759;BME280;13604;52.496;13.456;2023-02-28T06:33:57;102835.41;;;-3.37;100.00
25759;BME280;13604;52.496;13.456;2023-02-28T06:36:23;102826.94;;;-3.17;100.00
25759;BME280;13604;52.496;13.456;2023-02-28T06:38:48;102856.81;;;-2.65;100.00
25759;BME280;13604;52.496;13.456;2023-02-28T06:41:19;102853.75;;;-2.29;100.00
25759;BME280;13604;52.496;13.456;2023-02-28T06:43:44;102853.94;;;-1.95;100.00
25759;BME280;13604;52.496;13.456;2023-02-28T06:46:12;102839.63;;;-1.60;100.00
25759;BME280;13604;52.496;13.456;2023-02-28T06:48:38;102838.72;;;-1.13;100.00
25759;BME280;13604;52.496;13.456;2023-02-28T06:53:31;102838.75;;;-0.15;100.00
25759;BME280;13604;52.496;13.456;2023-02-28T06:55:57;102830.38;;;0.29;98.95
25759;BME280;13604;52.496;13.456;2023-02-28T06:58:22;102877.75;;;1.04;94.33
25759;BME280;13604;52.496;13.456;2023-02-28T07:00:50;102861.44;;;1.63;91.25
25759;BME280;13604;52.496;13.456;2023-02-28T07:03:16;102846.44;;;2.12;87.58
25759;BME280;13604;52.496;13.456;2023-02-28T07:05:42;102854.53;;;2.78;83.64
25759;BME280;13604;52.496;13.456;2023-02-28T07:08:08;102855.50;;;3.26;79.37
25759;BME280;13604;52.496;13.456;2023-02-28T07:10:33;102849.41;;;3.57;77.82
25759;BME280;13604;52.496;13.456;2023-02-28T07:12:59;102860.81;;;4.09;73.69
25759;BME280;13604;52.496;13.456;2023-02-28T07:15:25;102860.34;;;4.29;72.43
25759;BME280;13604;52.496;13.456;2023-02-28T07:17:50;102853.19;;;4.59;68.71
25759;BME280;13604;52.496;13.456;2023-02-28T07:20:15;102861.34;;;4.89;66.71
25759;BME280;13604;52.496;13.456;2023-02-28T07:22:41;102863.38;;;5.18;63.90
25759;BME280;13604;52.496;13.456;2023-02-28T07:25:07;102859.31;;;5.55;61.70
25759;BME280;13604;52.496;13.456;2023-02-28T07:27:32;102864.16;;;5.86;60.80
25759;BME280;13604;52.496;13.456;2023-02-28T07:29:59;102863.53;;;6.06;58.95
25759;BME280;13604;52.496;13.456;2023-02-28T07:32:26;102851.19;;;6.21;56.69
25759;BME280;13604;52.496;13.456;2023-02-28T07:34:52;102847.22;;;6.16;55.24
25759;BME280;13604;52.496;13.456;2023-02-28T07:37:17;102869.75;;;6.26;55.26
25759;BME280;13604;52.496;13.456;2023-02-28T07:39:42;102862.56;;;6.32;53.69
25759;BME280;13604;52.496;13.456;2023-02-28T07:42:08;102867.97;;;6.53;53.14
25759;BME280;13604;52.496;13.456;2023-02-28T07:44:36;102861.03;;;6.71;53.24
25759;BME280;13604;52.496;13.456;2023-02-28T07:47:08;102856.25;;;6.84;52.02
25759;BME280;13604;52.496;13.456;2023-02-28T07:49:37;102854.59;;;7.04;51.69
25759;BME280;13604;52.496;13.456;2023-02-28T07:52:06;102857.38;;;7.24;50.53
25759;BME280;13604;52.496;13.456;2023-02-28T07:54:32;102867.72;;;7.52;49.49
25759;BME280;13604;52.496;13.456;2023-02-28T07:56:58;102850.31;;;7.51;49.87
25759;BME280;13604;52.496;13.456;2023-02-28T07:59:24;102849.22;;;7.39;48.17
25759;BME280;13604;52.496;13.456;2023-02-28T08:01:49;102864.88;;;7.59;47.81
25759;BME280;13604;52.496;13.456;2023-02-28T08:04:16;102839.81;;;7.49;45.84
25759;BME280;13604;52.496;13.456;2023-02-28T08:06:41;102848.91;;;7.54;45.01
25759;BME280;13604;52.496;13.456;2023-02-28T08:09:07;102864.94;;;7.69;44.31
25759;BME280;13604;52.496;13.456;2023-02-28T08:11:32;102848.53;;;7.79;43.80
25759;BME280;13604;52.496;13.456;2023-02-28T08:13:57;102870.16;;;7.99;43.58
25759;BME280;13604;52.496;13.456;2023-02-28T08:16:23;102845.53;;;7.74;43.36
25759;BME280;13604;52.496;13.456;2023-02-28T08:18:52;102869.41;;;6.40;43.12
25759;BME280;13604;52.496;13.456;2023-02-28T08:21:18;102856.41;;;5.16;45.73
25759;BME280;13604;52.496;13.456;2023-02-28T08:23:43;102877.22;;;5.70;45.60
25759;BME280;13604;52.496;13.456;2023-02-28T08:26:11;102853.44;;;4.45;46.16
25759;BME280;13604;52.496;13.456;2023-02-28T08:28:36;102867.31;;;5.14;45.87
25759;BME280;13604;52.496;13.456;2023-02-28T08:31:07;102871.13;;;5.09;47.49
25759;BME280;13604;52.496;13.456;2023-02-28T08:33:32;102872.59;;;6.47;42.10
25759;BME280;13604;52.496;13.456;2023-02-28T08:35:58;102864.66;;;7.28;41.68
25759;BME280;13604;52.496;13.456;2023-02-28T08:38:23;102870.06;;;8.07;39.34
25759;BME280;13604;52.496;13.456;2023-02-28T08:40:49;102871.75;;;9.58;36.98
25759;BME280;13604;52.496;13.456;2023-02-28T08:43:14;102873.47;;;8.96;35.55
25759;BME280;13604;52.496;13.456;2023-02-28T08:45:39;102854.31;;;7.47;38.34
25759;BME280;13604;52.496;13.456;2023-02-28T08:48:05;102871.00;;;8.77;35.89
25759;BME280;13604;52.496;13.456;2023-02-28T08:50:30;102879.28;;;8.62;36.74
25759;BME280;13604;52.496;13.456;2023-02-28T08:52:56;102873.84;;;8.40;35.32
25759;BME280;13604;52.496;13.456;2023-02-28T08:55:21;102854.63;;;9.39;36.20
25759;BME280;13604;52.496;13.456;2023-02-28T08:57:46;102863.78;;;9.87;32.43
25759;BME280;13604;52.496;13.456;2023-02-28T09:00:13;102855.94;;;10.52;33.45
25759;BME280;13604;52.496;13.456;2023-02-28T09:02:39;102864.19;;;12.31;31.35
25759;BME280;13604;52.496;13.456;2023-02-28T09:05:05;102869.94;;;13.13;29.49
25759;BME280;13604;52.496;13.456;2023-02-28T09:07:31;102868.81;;;11.17;29.30
25759;BME280;13604;52.496;13.456;2023-02-28T09:09:56;102872.19;;;11.16;30.55
25759;BME280;13604;52.496;13.456;2023-02-28T09:12:26;102863.28;;;11.48;29.94
25759;BME280;13604;52.496;13.456;2023-02-28T09:14:52;102860.25;;;12.61;28.96
25759;BME280;13604;52.496;13.456;2023-02-28T09:17:19;102870.88;;;13.92;28.11
25759;BME280;13604;52.496;13.456;2023-02-28T09:19:44;102860.16;;;12.85;27.94
25759;BME280;13604;52.496;13.456;2023-02-28T09:22:10;102869.09;;;14.19;26.62
25759;BME280;13604;52.496;13.456;2023-02-28T09:24:37;102858.03;;;14.93;26.65
25759;BME280;13604;52.496;13.456;2023-02-28T09:27:02;102872.97;;;14.66;24.93
25759;BME280;13604;52.496;13.456;2023-02-28T09:29:27;102845.44;;;15.92;24.74
25759;BME280;13604;52.496;13.456;2023-02-28T09:31:53;102869.81;;;13.50;26.18
25759;BME280;13604;52.496;13.456;2023-02-28T09:34:18;102860.03;;;16.01;25.29
25759;BME280;13604;52.496;13.456;2023-02-28T09:36:44;102857.97;;;15.96;24.63
25759;BME280;13604;52.496;13.456;2023-02-28T09:39:10;102861.06;;;13.89;25.81
25759;BME280;13604;52.496;13.456;2023-02-28T09:41:43;102856.97;;;13.28;26.18
25759;BME280;13604;52.496;13.456;2023-02-28T09:44:36;102868.72;;;13.99;26.34
25759;BME280;13604;52.496;13.456;2023-02-28T09:47:27;102873.97;;;16.15;24.89
25759;BME280;13604;52.496;13.456;2023-02-28T09:49:56;102870.59;;;17.85;23.85
25759;BME280;13604;52.496;13.456;2023-02-28T09:52:29;102855.97;;;19.47;22.42
25759;BME280;13604;52.496;13.456;2023-02-28T09:54:55;102854.03;;;20.29;21.40
25759;BME280;13604;52.496;13.456;2023-02-28T09:57:40;102854.53;;;15.07;24.08
25759;BME280;13604;52.496;13.456;2023-02-28T10:00:18;102862.44;;;17.63;23.13
25759;BME280;13604;52.496;13.456;2023-02-28T10:02:47;102869.59;;;17.13;23.36
25759;BME280;13604;52.496;13.456;2023-02-28T10:05:17;102868.38;;;18.49;22.00
25759;BME280;13604;52.496;13.456;2023-02-28T10:10:29;102872.88;;;21.86;19.76
25759;BME280;13604;52.496;13.456;2023-02-28T10:12:59;102876.31;;;21.06;20.18
25759;BME280;13604;52.496;13.456;2023-02-28T10:15:29;102866.47;;;21.02;20.04
25759;BME280;13604;52.496;13.456;2023-02-28T10:17:59;102870.34;;;22.18;20.06
25759;BME280;13604;52.496;13.456;2023-02-28T10:20:25;102865.84;;;22.44;19.24
25759;BME280;13604;52.496;13.456;2023-02-28T10:26:01;102872.59;;;23.60;17.70
25759;BME280;13604;52.496;13.456;2023-02-28T10:28:32;102863.03;;;23.00;18.74
25759;BME280;13604;52.496;13.456;2023-02-28T10:30:58;102862.97;;;24.02;18.24
25759;BME280;13604;52.496;13.456;2023-02-28T10:33:31;102848.50;;;23.54;17.95
25759;BME280;13604;52.496;13.456;2023-02-28T10:35:58;102860.25;;;24.40;18.01
25759;BME280;13604;52.496;13.456;2023-02-28T10:38:35;102867.19;;;22.30;18.58
25759;BME280;13604;52.496;13.456;2023-02-28T10:41:09;102858.56;;;23.31;18.18
25759;BME280;13604;52.496;13.456;2023-02-28T10:43:36;102865.66;;;23.32;18.51
25759;BME280;13604;52.496;13.456;2023-02-28T10:46:05;102853.28;;;23.32;17.86
25759;BME280;13604;52.496;13.456;2023-02-28T10:48:38;102863.53;;;23.53;17.68
25759;BME280;13604;52.496;13.456;2023-02-28T10:51:08;102859.78;;;23.44;17.60
25759;BME280;13604;52.496;13.456;2023-02-28T10:53:47;102857.97;;;20.40;19.44
25759;BME280;13604;52.496;13.456;2023-02-28T10:56:17;102845.13;;;21.75;18.49
25759;BME280;13604;52.496;13.456;2023-02-28T10:58:58;102847.19;;;20.58;19.62
25759;BME280;13604;52.496;13.456;2023-02-28T11:03:55;102839.91;;;24.02;17.42
25759;BME280;13604;52.496;13.456;2023-02-28T11:06:30;102836.22;;;22.01;18.33
25759;BME280;13604;52.496;13.456;2023-02-28T11:08:58;102829.44;;;22.40;18.03
25759;BME280;13604;52.496;13.456;2023-02-28T11:11:26;102809.44;;;21.94;18.45
25759;BME280;13604;52.496;13.456;2023-02-28T11:13:54;102827.06;;;18.49;20.48
25759;BME280;13604;52.496;13.456;2023-02-28T11:16:21;102823.53;;;20.38;19.95
25759;BME280;13604;52.496;13.456;2023-02-28T11:18:49;102816.03;;;21.78;18.99
25759;BME280;13604;52.496;13.456;2023-02-28T11:21:36;102817.59;;;22.91;18.53
25759;BME280;13604;52.496;13.456;2023-02-28T11:24:18;102810.31;;;24.71;18.19
25759;BME280;13604;52.496;13.456;2023-02-28T11:26:47;102815.38;;;23.41;17.83
25759;BME280;13604;52.496;13.456;2023-02-28T11:29:20;102808.88;;;20.71;18.71
25759;BME280;13604;52.496;13.456;2023-02-28T11:34:34;102802.22;;;19.04;20.92
25759;BME280;13604;52.496;13.456;2023-02-28T11:37:01;102813.78;;;18.67;21.38
25759;BME280;13604;52.496;13.456;2023-02-28T11:39:30;102821.34;;;21.50;19.51
25759;BME280;13604;52.496;13.456;2023-02-28T11:42:23;102809.84;;;19.39;20.84
25759;BME280;13604;52.496;13.456;2023-02-28T11:45:01;102813.94;;;20.42;20.60
25759;BME280;13604;52.496;13.456;2023-02-28T11:47:48;102809.91;;;19.82;20.08
25759;BME280;13604;52.496;13.456;2023-02-28T11:50:53;102812.81;;;20.35;20.14
25759;BME280;13604;52.496;13.456;2023-02-28T11:56:38;102810.13;;;26.22;16.53
25759;BME280;13604;52.496;13.456;2023-02-28T11:59:26;102813.91;;;27.27;16.60
25759;BME280;13604;52.496;13.456;2023-02-28T12:05:29;102804.66;;;26.91;15.21
25759;BME280;13604;52.496;13.456;2023-02-28T12:08:04;102804.72;;;26.95;15.24
25759;BME280;13604;52.496;13.456;2023-02-28T12:10:39;102804.03;;;27.16;15.44
25759;BME280;13604;52.496;13.456;2023-02-28T12:13:15;102805.03;;;26.42;15.77
25759;BME280;13604;52.496;13.456;2023-02-28T12:18:41;102803.97;;;28.55;15.02
25759;BME280;13604;52.496;13.456;2023-02-28T12:26:49;102801.34;;;28.61;14.79
25759;BME280;13604;52.496;13.456;2023-02-28T12:29:25;102792.22;;;26.93;15.35
25759;BME280;13604;52.496;13.456;2023-02-28T12:37:37;102770.09;;;28.92;14.74
25759;BME280;13604;52.496;13.456;2023-02-28T12:40:09;102761.41;;;27.38;14.90
25759;BME280;13604;52.496;13.456;2023-02-28T12:42:45;102769.22;;;28.86;14.41
25759;BME280;13604;52.496;13.456;2023-02-28T12:45:18;102758.47;;;28.76;14.32
25759;BME280;13604;52.496;13.456;2023-02-28T12:47:47;102751.09;;;30.20;13.59
25759;BME280;13604;52.496;13.456;2023-02-28T12:50:14;102739.13;;;30.71;13.22
25759;BME280;13604;52.496;13.456;2023-02-28T12:53:37;102736.53;;;31.62;12.76
25759;BME280;13604;52.496;13.456;2023-02-28T12:59:01;102726.13;;;29.95;13.32
25759;BME280;13604;52.496;13.456;2023-02-28T13:01:38;102719.22;;;30.99;13.81
25759;BME280;13604;52.496;13.456;2023-02-28T13:04:14;102717.78;;;31.53;12.93
25759;BME280;13604;52.496;13.456;2023-02-28T13:09:20;102723.34;;;24.29;15.37
25759;BME280;13604;52.496;13.456;2023-02-28T13:11:51;102712.81;;;25.35;15.61
25759;BME280;13604;52.496;13.456;2023-02-28T13:14:24;102715.16;;;27.58;14.67
25759;BME280;13604;52.496;13.456;2023-02-28T13:16:53;102715.28;;;27.84;14.62
25759;BME280;13604;52.496;13.456;2023-02-28T13:19:21;102715.53;;;26.89;14.10
25759;BME280;13604;52.496;13.456;2023-02-28T13:21:48;102706.59;;;28.46;14.04
25759;BME280;13604;52.496;13.456;2023-02-28T13:24:48;102720.00;;;29.41;13.26
25759;BME280;13604;52.496;13.456;2023-02-28T13:29:41;102714.06;;;30.65;12.66
25759;BME280;13604;52.496;13.456;2023-02-28T13:34:37;102720.47;;;27.51;14.03
25759;BME280;13604;52.496;13.456;2023-02-28T13:39:50;102710.84;;;27.86;14.06
25759;BME280;13604;52.496;13.456;2023-02-28T13:47:33;102693.97;;;29.80;13.22
25759;BME280;13604;52.496;13.456;2023-02-28T13:59:20;102630.34;;;29.96;13.06
25759;BME280;13604;52.496;13.456;2023-02-28T14:02:06;102680.38;;;30.10;13.48
25759;BME280;13604;52.496;13.456;2023-02-28T14:05:00;102692.13;;;31.16;12.83
25759;BME280;13604;52.496;13.456;2023-02-28T14:07:30;102699.34;;;31.92;12.87
25759;BME280;13604;52.496;13.456;2023-02-28T14:10:01;102681.47;;;31.09;13.04
25759;BME280;13604;52.496;13.456;2023-02-28T14:17:59;102692.34;;;29.23;13.17